Decoded Metar for UUOO (VORONEZH in RUSSIA) (IATA:VOZ) | Meteo·Mobile Aviation Weather
aviador You're here:

UUOO Decoded Metar

VORONEZH in RUSSIA
Report Time2018-10-20 13:00:00
UTC Time2018-10-20 13:32:41
Flight Rules vfr VFR
Wind020° at 10 kt
W.Decomp.*RWY 30: 2.9 kt HW 9.6 kt RCW
W.Rank020° ranks 32
Current wind is above 020° avg. (6.5)
Visibility9999 m
Phenomena:N/A
Clouds:N/A
Expected CloudBase > 2,800 ft AGL from Temp-Dew spread
CeilingNone
Temp15°C (ISA +1)
Dew Point08°C (63% RH)
AAT10.9°C
QNH1017 hPa
Density Alt650 ft
Elevation515 ft
Report Wrong Elevation
Raw Report
UUOO 201300Z 02005MPS CAVOK 15/08 Q1017 R12/090070 NOSIG RMK
QFE749=

Extra information for UUOO:More info

Metar Taf Metar & Taf Last 4 Metars F.Rules Stats Wind Profile Meteogram Temp Stats Airport Information Weather charts Add Link Nearby VenuesMetar ALERT Operation Metar Decoded Social comments